Terminal Aerodrome Forecast
Issued by NWS

Home | Current Version | Previous Version | Text Only | Print | Product List | Glossary On
Versions: 1 2 3 4 5 6 7 8 9 10 11 12 13 14 15
000
FTUS43 KDLH 310408 AAB
TAFBRD
TAF AMD
KBRD 310408Z 3104/3124 27007KT P6SM SCT070 WS020/31030KT
     FM311100 29006KT P6SM SKC
     FM311500 30014G24KT P6SM SCT070=

USA.gov is the U.S. government's official web portal to all federal, state and local government web resources and services.